createdAt,value
2019-04-11T00:00:26.130Z,98247.00
2019-04-11T00:05:31.854Z,98248.00
2019-04-11T00:10:38.120Z,98245.00
2019-04-11T00:15:45.037Z,98246.00
2019-04-11T00:20:52.718Z,98239.00
2019-04-11T00:25:59.982Z,98249.00
2019-04-11T00:31:07.013Z,98244.00
2019-04-11T00:36:15.064Z,98237.00
2019-04-11T00:41:21.944Z,98246.00
2019-04-11T00:46:28.827Z,98244.00
2019-04-11T00:51:34.686Z,98242.00
2019-04-11T00:56:42.249Z,98235.00
2019-04-11T01:01:51.436Z,98238.00
2019-04-11T01:06:58.628Z,98258.00
2019-04-11T01:12:06.611Z,98243.00
2019-04-11T01:17:13.354Z,98255.00
2019-04-11T01:22:20.276Z,98248.00
2019-04-11T01:27:45.902Z,98258.00
2019-04-11T01:32:55.229Z,98252.00
2019-04-11T01:38:02.064Z,98254.00
2019-04-11T01:43:09.118Z,98254.00
2019-04-11T01:48:19.594Z,98257.00
2019-04-11T01:53:26.848Z,98264.00
2019-04-11T01:58:33.006Z,98254.00
2019-04-11T02:03:59.625Z,98239.00
2019-04-11T02:09:11.549Z,98258.00
2019-04-11T02:14:19.955Z,98249.00
2019-04-11T02:19:29.727Z,98256.00
2019-04-11T02:24:39.763Z,98247.00
2019-04-11T02:29:46.901Z,98257.00
2019-04-11T02:34:57.171Z,98268.00
2019-04-11T02:40:03.401Z,98270.00
2019-04-11T02:45:25.070Z,98284.00
2019-04-11T02:50:25.417Z,98285.00
2019-04-11T02:55:31.525Z,98285.00
2019-04-11T03:00:40.214Z,98290.00
2019-04-11T03:05:47.033Z,98290.00
2019-04-11T03:10:57.557Z,98291.00
2019-04-11T03:16:23.670Z,98295.00
2019-04-11T03:21:20.500Z,98302.00
2019-04-11T03:26:25.030Z,98300.00
2019-04-11T03:32:13.236Z,98317.00
2019-04-11T03:42:06.760Z,98303.00
2019-04-11T03:47:16.830Z,98309.00
2019-04-11T03:52:11.621Z,98323.00
2019-04-11T03:57:18.192Z,98318.00
2019-04-11T04:02:25.328Z,98319.00
2019-04-11T04:07:32.065Z,98324.00
2019-04-11T04:12:40.372Z,98332.00
2019-04-11T04:18:03.376Z,98341.00
2019-04-11T04:23:16.622Z,98346.00
2019-04-11T04:28:27.228Z,98345.00
2019-04-11T04:33:35.600Z,98359.00
2019-04-11T04:38:44.363Z,98350.00
2019-04-11T04:43:52.745Z,98359.00
2019-04-11T04:48:59.191Z,98364.00
2019-04-11T04:54:08.125Z,98366.00
2019-04-11T04:59:16.339Z,98378.00
2019-04-11T05:04:23.571Z,98374.00
2019-04-11T05:09:32.031Z,98388.00
2019-04-11T05:14:39.436Z,98390.00
2019-04-11T05:19:45.224Z,98396.00
2019-04-11T05:24:51.815Z,98403.00
2019-04-11T05:29:58.710Z,98403.00
2019-04-11T05:35:07.050Z,98400.00
2019-04-11T05:40:12.961Z,98409.00
2019-04-11T05:45:22.897Z,98408.00
2019-04-11T05:50:30.283Z,98406.00
2019-04-11T05:55:41.374Z,98416.00
2019-04-11T06:00:53.339Z,98421.00
2019-04-11T06:06:06.551Z,98407.00
2019-04-11T06:11:19.482Z,98420.00
2019-04-11T06:16:36.141Z,98418.00
2019-04-11T06:21:36.919Z,98423.00
2019-04-11T06:27:01.121Z,98431.00
2019-04-11T06:32:19.913Z,98438.00
2019-04-11T06:43:06.044Z,98436.00
2019-04-11T06:48:24.779Z,98426.00
2019-04-11T06:53:32.731Z,98438.00
2019-04-11T06:58:40.858Z,98442.00
2019-04-11T07:03:49.057Z,98430.00
2019-04-11T07:08:59.550Z,98437.00
2019-04-11T07:14:24.762Z,98438.00
2019-04-11T07:19:32.300Z,98427.00
2019-04-11T07:24:46.135Z,98433.00
2019-04-11T07:30:11.417Z,98439.00
2019-04-11T07:35:36.275Z,98447.00
2019-04-11T07:40:56.765Z,98452.00
2019-04-11T07:46:05.211Z,98446.00
2019-04-11T07:51:15.276Z,98459.00
2019-04-11T07:56:29.965Z,98467.00
2019-04-11T08:07:16.004Z,98464.00
2019-04-11T08:12:25.664Z,98471.00
2019-04-11T08:17:37.602Z,98478.00
2019-04-11T08:22:43.354Z,98470.00
2019-04-11T08:28:01.362Z,98473.00
2019-04-11T08:33:08.039Z,98485.00
2019-04-11T08:38:34.653Z,98495.00
2019-04-11T08:43:43.413Z,98496.00
2019-04-11T08:48:53.043Z,98506.00
2019-04-11T08:54:01.774Z,98495.00
2019-04-11T08:59:13.578Z,98509.00
2019-04-11T09:04:39.684Z,98510.00
2019-04-11T09:10:07.428Z,98491.00
2019-04-11T09:15:32.948Z,98509.00
2019-04-11T09:20:45.677Z,98509.00
2019-04-11T09:26:01.732Z,98514.00
2019-04-11T09:31:22.176Z,98508.00
2019-04-11T09:36:40.812Z,98512.00
2019-04-11T09:41:48.988Z,98513.00
2019-04-11T09:46:59.175Z,98511.00
2019-04-11T09:52:09.103Z,98512.00
2019-04-11T09:57:18.762Z,98502.00
2019-04-11T10:02:31.695Z,98496.00
2019-04-11T10:07:55.905Z,98514.00
2019-04-11T10:13:20.572Z,98513.00
2019-04-11T10:18:34.041Z,98507.00
2019-04-11T10:23:56.843Z,98529.00
2019-04-11T10:29:08.646Z,98516.00
2019-04-11T10:34:33.595Z,98523.00
2019-04-11T10:39:59.973Z,98517.00
2019-04-11T10:45:18.375Z,98510.00
2019-04-11T10:50:29.756Z,98501.00
2019-04-11T10:55:49.596Z,98510.00
2019-04-11T11:00:58.327Z,98535.00
2019-04-11T11:06:05.524Z,98504.00
2019-04-11T11:11:17.516Z,98515.00
2019-04-11T11:16:27.917Z,98510.00
2019-04-11T11:21:35.458Z,98505.00
2019-04-11T11:26:43.463Z,98515.00
2019-04-11T11:31:52.974Z,98503.00
2019-04-11T11:37:08.766Z,98517.00
2019-04-11T11:42:23.452Z,98530.00
2019-04-11T11:47:39.561Z,98540.00
2019-04-11T11:53:10.292Z,98520.00
2019-04-11T11:58:30.299Z,98550.00
2019-04-11T12:03:50.662Z,98506.00
2019-04-11T12:09:02.481Z,98535.00
2019-04-11T12:14:25.483Z,98539.00
2019-04-11T12:19:45.746Z,98541.00
2019-04-11T12:24:55.096Z,98545.00
2019-04-11T12:30:08.672Z,98526.00
2019-04-11T12:35:26.330Z,98540.00
2019-04-11T12:40:52.663Z,98534.00
2019-04-11T12:46:17.159Z,98537.00
2019-04-11T12:51:41.385Z,98541.00
2019-04-11T12:56:50.673Z,98551.00
2019-04-11T13:02:15.288Z,98538.00
2019-04-11T13:07:39.664Z,98527.00
2019-04-11T13:12:47.601Z,98529.00
2019-04-11T13:18:04.782Z,98542.00
2019-04-11T13:23:32.241Z,98545.00
2019-04-11T13:28:41.845Z,98539.00
2019-04-11T13:33:49.834Z,98547.00
2019-04-11T13:38:57.063Z,98549.00
2019-04-11T13:44:06.284Z,98546.00
2019-04-11T13:49:15.249Z,98550.00
2019-04-11T13:54:24.382Z,98548.00
2019-04-11T13:59:35.417Z,98550.00
2019-04-11T14:04:50.822Z,98559.00
2019-04-11T14:10:03.072Z,98561.00
2019-04-11T14:15:14.980Z,98564.00
2019-04-11T14:20:29.826Z,98573.00
2019-04-11T14:25:52.636Z,98566.00
2019-04-11T14:31:08.128Z,98556.00
2019-04-11T14:36:33.712Z,98561.00
2019-04-11T14:41:41.551Z,98568.00
2019-04-11T14:46:47.250Z,98566.00
2019-04-11T14:52:07.494Z,98564.00
2019-04-11T14:57:16.717Z,98574.00
2019-04-11T15:02:25.501Z,98571.00
2019-04-11T15:07:32.715Z,98575.00
2019-04-11T15:12:40.944Z,98585.00
2019-04-11T15:17:50.061Z,98579.00
2019-04-11T15:22:58.086Z,98583.00
2019-04-11T15:28:24.018Z,98584.00
2019-04-11T15:33:41.068Z,98586.00
2019-04-11T15:39:04.611Z,98584.00
2019-04-11T15:44:18.617Z,98591.00
2019-04-11T15:49:46.602Z,98587.00
2019-04-11T15:55:02.222Z,98592.00
2019-04-11T16:00:22.641Z,98593.00
2019-04-11T16:11:12.954Z,98613.00
2019-04-11T16:16:20.886Z,98604.00
2019-04-11T16:21:40.010Z,98611.00
2019-04-11T16:26:56.163Z,98611.00
2019-04-11T16:32:07.143Z,98618.00
2019-04-11T16:37:17.554Z,98620.00
2019-04-11T16:42:24.857Z,98622.00
2019-04-11T16:47:35.026Z,98627.00
2019-04-11T16:52:43.743Z,98624.00
2019-04-11T16:57:50.559Z,98627.00
2019-04-11T17:02:56.796Z,98629.00
2019-04-11T17:08:08.323Z,98627.00
2019-04-11T17:13:15.160Z,98630.00
2019-04-11T17:18:21.898Z,98629.00
2019-04-11T17:23:28.725Z,98627.00
2019-04-11T17:28:34.851Z,98636.00
2019-04-11T17:33:41.791Z,98633.00
2019-04-11T17:38:47.327Z,98646.00
2019-04-11T17:43:53.007Z,98640.00
2019-04-11T17:48:58.831Z,98648.00
2019-04-11T17:54:05.211Z,98654.00
2019-04-11T17:59:12.556Z,98656.00
2019-04-11T18:04:18.930Z,98670.00
2019-04-11T18:09:26.302Z,98664.00
2019-04-11T18:14:32.140Z,98670.00
2019-04-11T18:19:38.712Z,98681.00
2019-04-11T18:24:49.914Z,98690.00
2019-04-11T18:29:53.933Z,98682.00
2019-04-11T18:35:02.384Z,98692.00
2019-04-11T18:40:10.584Z,98694.00
2019-04-11T18:45:19.216Z,98707.00
2019-04-11T18:50:28.805Z,98705.00
2019-04-11T18:55:36.025Z,98709.00
2019-04-11T19:00:43.678Z,98699.00
2019-04-11T19:05:51.714Z,98718.00
2019-04-11T19:10:58.146Z,98710.00
2019-04-11T19:16:04.478Z,98706.00
2019-04-11T19:21:11.146Z,98707.00
2019-04-11T19:26:17.504Z,98714.00
2019-04-11T19:31:27.152Z,98707.00
2019-04-11T19:36:31.538Z,98703.00
2019-04-11T19:41:37.095Z,98713.00
2019-04-11T19:46:43.753Z,98713.00
2019-04-11T19:51:52.961Z,98699.00
2019-04-11T19:57:05.213Z,98708.00
2019-04-11T20:02:11.341Z,98706.00
2019-04-11T20:07:17.679Z,98714.00
2019-04-11T20:12:25.370Z,98705.00
2019-04-11T20:17:43.487Z,98720.00
2019-04-11T20:22:40.606Z,98715.00
2019-04-11T20:27:48.171Z,98714.00
2019-04-11T20:32:54.354Z,98712.00
2019-04-11T20:38:15.933Z,98703.00
2019-04-11T20:43:25.608Z,98722.00
2019-04-11T20:48:35.117Z,98717.00
2019-04-11T20:53:41.802Z,98710.00
2019-04-11T20:58:47.521Z,98706.00
2019-04-11T21:03:53.220Z,98708.00
2019-04-11T21:09:03.035Z,98711.00
2019-04-11T21:14:10.725Z,98705.00
2019-04-11T21:19:17.356Z,98712.00
2019-04-11T21:24:24.087Z,98717.00
2019-04-11T21:29:30.798Z,98713.00
2019-04-11T21:34:40.026Z,98716.00
2019-04-11T21:39:45.799Z,98716.00
2019-04-11T21:44:52.357Z,98712.00
2019-04-11T21:49:59.044Z,98719.00
2019-04-11T21:55:07.258Z,98717.00
2019-04-11T22:00:27.915Z,98714.00
2019-04-11T22:05:35.345Z,98711.00
2019-04-11T22:10:41.855Z,98708.00
2019-04-11T22:15:48.550Z,98708.00
2019-04-11T22:20:55.836Z,98706.00
2019-04-11T22:26:02.586Z,98708.00
2019-04-11T22:31:11.074Z,98701.00
2019-04-11T22:36:17.538Z,98699.00
2019-04-11T22:41:24.201Z,98704.00
2019-04-11T22:46:30.133Z,98706.00
2019-04-11T23:08:31.080Z,98705.00
2019-04-11T23:13:37.691Z,98704.00
2019-04-11T23:18:44.875Z,98710.00
2019-04-11T23:23:51.565Z,98717.00
2019-04-11T23:28:58.741Z,98704.00
2019-04-11T23:34:05.062Z,98706.00
2019-04-11T23:39:12.731Z,98704.00
2019-04-11T23:44:20.370Z,98707.00
2019-04-11T23:49:29.220Z,98708.00
2019-04-11T23:54:34.684Z,98689.00
2019-04-11T23:59:41.157Z,98704.00
